sensor_id;sensor_type;location;lat;lon;timestamp;temperature;humidity
21298;DHT22;10808;48.010;11.326;2023-06-26T00:02:25;19.20;83.00
21298;DHT22;10808;48.010;11.326;2023-06-26T00:04:51;19.20;82.80
21298;DHT22;10808;48.010;11.326;2023-06-26T00:07:20;19.20;83.30
21298;DHT22;10808;48.010;11.326;2023-06-26T00:09:46;19.10;82.30
21298;DHT22;10808;48.010;11.326;2023-06-26T00:12:12;19.10;82.50
21298;DHT22;10808;48.010;11.326;2023-06-26T00:14:38;19.00;82.60
21298;DHT22;10808;48.010;11.326;2023-06-26T00:17:04;19.00;83.00
21298;DHT22;10808;48.010;11.326;2023-06-26T00:19:30;19.00;82.90
21298;DHT22;10808;48.010;11.326;2023-06-26T00:21:56;18.90;82.90
21298;DHT22;10808;48.010;11.326;2023-06-26T00:24:22;18.90;82.90
21298;DHT22;10808;48.010;11.326;2023-06-26T00:26:48;18.90;83.80
21298;DHT22;10808;48.010;11.326;2023-06-26T00:29:16;18.90;83.60
21298;DHT22;10808;48.010;11.326;2023-06-26T00:31:42;18.90;84.00
21298;DHT22;10808;48.010;11.326;2023-06-26T00:34:09;18.90;84.30
21298;DHT22;10808;48.010;11.326;2023-06-26T00:36:35;18.80;84.10
21298;DHT22;10808;48.010;11.326;2023-06-26T00:39:02;18.80;84.60
21298;DHT22;10808;48.010;11.326;2023-06-26T00:41:29;18.80;84.90
21298;DHT22;10808;48.010;11.326;2023-06-26T00:43:55;18.70;84.90
21298;DHT22;10808;48.010;11.326;2023-06-26T00:46:22;18.70;85.10
21298;DHT22;10808;48.010;11.326;2023-06-26T00:48:49;18.70;85.50
21298;DHT22;10808;48.010;11.326;2023-06-26T00:51:15;18.60;84.90
21298;DHT22;10808;48.010;11.326;2023-06-26T00:53:42;18.60;85.00
21298;DHT22;10808;48.010;11.326;2023-06-26T00:56:08;18.50;85.30
21298;DHT22;10808;48.010;11.326;2023-06-26T00:58:34;18.50;85.70
21298;DHT22;10808;48.010;11.326;2023-06-26T01:01:00;18.50;86.30
21298;DHT22;10808;48.010;11.326;2023-06-26T01:03:28;18.50;86.70
21298;DHT22;10808;48.010;11.326;2023-06-26T01:05:56;18.50;87.60
21298;DHT22;10808;48.010;11.326;2023-06-26T01:08:24;18.40;87.20
21298;DHT22;10808;48.010;11.326;2023-06-26T01:10:51;18.40;87.50
21298;DHT22;10808;48.010;11.326;2023-06-26T01:13:17;18.40;88.10
21298;DHT22;10808;48.010;11.326;2023-06-26T01:15:44;18.40;88.50
21298;DHT22;10808;48.010;11.326;2023-06-26T01:18:10;18.40;89.50
21298;DHT22;10808;48.010;11.326;2023-06-26T01:20:38;18.30;90.10
21298;DHT22;10808;48.010;11.326;2023-06-26T01:29:06;18.30;91.10
21298;DHT22;10808;48.010;11.326;2023-06-26T01:31:33;18.30;91.50
21298;DHT22;10808;48.010;11.326;2023-06-26T01:34:00;18.30;91.50
21298;DHT22;10808;48.010;11.326;2023-06-26T01:36:27;18.30;91.60
21298;DHT22;10808;48.010;11.326;2023-06-26T01:38:53;18.20;91.80
21298;DHT22;10808;48.010;11.326;2023-06-26T01:41:19;18.20;92.00
21298;DHT22;10808;48.010;11.326;2023-06-26T01:46:43;18.20;92.50
21298;DHT22;10808;48.010;11.326;2023-06-26T01:54:50;18.10;93.20
21298;DHT22;10808;48.010;11.326;2023-06-26T01:57:18;18.00;92.80
21298;DHT22;10808;48.010;11.326;2023-06-26T01:59:46;18.00;93.10
21298;DHT22;10808;48.010;11.326;2023-06-26T02:02:13;17.90;93.20
21298;DHT22;10808;48.010;11.326;2023-06-26T02:04:40;17.90;93.10
21298;DHT22;10808;48.010;11.326;2023-06-26T02:07:06;17.90;93.30
21298;DHT22;10808;48.010;11.326;2023-06-26T02:09:32;17.90;93.60
21298;DHT22;10808;48.010;11.326;2023-06-26T02:11:58;17.80;93.40
21298;DHT22;10808;48.010;11.326;2023-06-26T02:14:24;17.80;93.50
21298;DHT22;10808;48.010;11.326;2023-06-26T02:16:50;17.80;93.70
21298;DHT22;10808;48.010;11.326;2023-06-26T02:19:16;17.80;93.90
21298;DHT22;10808;48.010;11.326;2023-06-26T02:21:48;17.70;94.10
21298;DHT22;10808;48.010;11.326;2023-06-26T02:24:15;17.70;94.10
21298;DHT22;10808;48.010;11.326;2023-06-26T02:26:41;17.70;94.40
21298;DHT22;10808;48.010;11.326;2023-06-26T02:29:07;17.60;94.40
21298;DHT22;10808;48.010;11.326;2023-06-26T02:31:33;17.60;94.30
21298;DHT22;10808;48.010;11.326;2023-06-26T02:33:59;17.60;94.70
21298;DHT22;10808;48.010;11.326;2023-06-26T02:36:25;17.60;94.70
21298;DHT22;10808;48.010;11.326;2023-06-26T02:38:51;17.60;94.80
21298;DHT22;10808;48.010;11.326;2023-06-26T02:41:17;17.60;94.90
21298;DHT22;10808;48.010;11.326;2023-06-26T02:43:43;17.60;95.10
21298;DHT22;10808;48.010;11.326;2023-06-26T02:46:09;17.50;95.30
21298;DHT22;10808;48.010;11.326;2023-06-26T02:48:35;17.50;95.30
21298;DHT22;10808;48.010;11.326;2023-06-26T02:51:01;17.50;95.40
21298;DHT22;10808;48.010;11.326;2023-06-26T02:53:27;17.50;95.30
21298;DHT22;10808;48.010;11.326;2023-06-26T02:55:53;17.40;95.20
21298;DHT22;10808;48.010;11.326;2023-06-26T02:58:19;17.40;95.20
21298;DHT22;10808;48.010;11.326;2023-06-26T03:00:45;17.40;95.30
21298;DHT22;10808;48.010;11.326;2023-06-26T03:03:12;17.40;95.40
21298;DHT22;10808;48.010;11.326;2023-06-26T03:05:39;17.30;95.70
21298;DHT22;10808;48.010;11.326;2023-06-26T03:08:05;17.40;95.80
21298;DHT22;10808;48.010;11.326;2023-06-26T03:10:31;17.30;95.70
21298;DHT22;10808;48.010;11.326;2023-06-26T03:12:57;17.30;96.00
21298;DHT22;10808;48.010;11.326;2023-06-26T03:15:23;17.30;96.20
21298;DHT22;10808;48.010;11.326;2023-06-26T03:17:49;17.20;96.10
21298;DHT22;10808;48.010;11.326;2023-06-26T03:20:15;17.20;96.20
21298;DHT22;10808;48.010;11.326;2023-06-26T03:22:42;17.20;96.20
21298;DHT22;10808;48.010;11.326;2023-06-26T03:25:08;17.10;96.60
21298;DHT22;10808;48.010;11.326;2023-06-26T03:27:34;17.20;96.80
21298;DHT22;10808;48.010;11.326;2023-06-26T03:30:00;17.10;96.90
21298;DHT22;10808;48.010;11.326;2023-06-26T03:32:26;17.20;96.80
21298;DHT22;10808;48.010;11.326;2023-06-26T03:34:52;17.10;96.90
21298;DHT22;10808;48.010;11.326;2023-06-26T03:37:22;17.20;97.10
21298;DHT22;10808;48.010;11.326;2023-06-26T03:39:48;17.10;97.20
21298;DHT22;10808;48.010;11.326;2023-06-26T03:42:15;17.10;97.40
21298;DHT22;10808;48.010;11.326;2023-06-26T03:44:41;17.10;97.40
21298;DHT22;10808;48.010;11.326;2023-06-26T03:47:07;17.10;97.70
21298;DHT22;10808;48.010;11.326;2023-06-26T03:49:33;17.10;97.70
21298;DHT22;10808;48.010;11.326;2023-06-26T03:51:59;17.10;97.90
21298;DHT22;10808;48.010;11.326;2023-06-26T03:54:25;17.00;97.80
21298;DHT22;10808;48.010;11.326;2023-06-26T03:56:51;17.00;98.10
21298;DHT22;10808;48.010;11.326;2023-06-26T03:59:17;17.00;98.00
21298;DHT22;10808;48.010;11.326;2023-06-26T04:01:43;17.00;98.20
21298;DHT22;10808;48.010;11.326;2023-06-26T04:04:09;17.00;98.40
21298;DHT22;10808;48.010;11.326;2023-06-26T04:06:35;17.00;98.70
21298;DHT22;10808;48.010;11.326;2023-06-26T04:09:01;17.10;99.00
21298;DHT22;10808;48.010;11.326;2023-06-26T04:11:28;17.10;99.40
21298;DHT22;10808;48.010;11.326;2023-06-26T04:13:54;17.10;99.50
21298;DHT22;10808;48.010;11.326;2023-06-26T04:16:21;17.20;99.80
21298;DHT22;10808;48.010;11.326;2023-06-26T04:18:47;17.20;99.90
21298;DHT22;10808;48.010;11.326;2023-06-26T04:21:13;17.30;99.90
21298;DHT22;10808;48.010;11.326;2023-06-26T04:23:40;17.30;99.90
21298;DHT22;10808;48.010;11.326;2023-06-26T04:26:06;17.40;99.90
21298;DHT22;10808;48.010;11.326;2023-06-26T04:28:35;17.40;99.90
21298;DHT22;10808;48.010;11.326;2023-06-26T04:31:02;17.50;99.90
21298;DHT22;10808;48.010;11.326;2023-06-26T04:33:31;17.50;99.90
21298;DHT22;10808;48.010;11.326;2023-06-26T04:35:57;17.60;99.90
21298;DHT22;10808;48.010;11.326;2023-06-26T04:38:23;17.60;99.90
21298;DHT22;10808;48.010;11.326;2023-06-26T04:40:49;17.70;99.90
21298;DHT22;10808;48.010;11.326;2023-06-26T04:43:15;17.80;99.90
21298;DHT22;10808;48.010;11.326;2023-06-26T04:45:42;17.80;99.90
21298;DHT22;10808;48.010;11.326;2023-06-26T04:48:08;17.90;99.90
21298;DHT22;10808;48.010;11.326;2023-06-26T04:50:34;18.00;99.90
21298;DHT22;10808;48.010;11.326;2023-06-26T04:53:01;18.00;99.90
21298;DHT22;10808;48.010;11.326;2023-06-26T04:55:27;18.10;99.90
21298;DHT22;10808;48.010;11.326;2023-06-26T04:57:54;18.10;99.90
21298;DHT22;10808;48.010;11.326;2023-06-26T05:00:20;18.20;99.90
21298;DHT22;10808;48.010;11.326;2023-06-26T05:02:46;18.30;99.80
21298;DHT22;10808;48.010;11.326;2023-06-26T05:05:12;18.40;99.40
21298;DHT22;10808;48.010;11.326;2023-06-26T05:07:38;18.50;98.80
21298;DHT22;10808;48.010;11.326;2023-06-26T05:10:04;18.60;98.80
21298;DHT22;10808;48.010;11.326;2023-06-26T05:12:31;18.70;98.10
21298;DHT22;10808;48.010;11.326;2023-06-26T05:14:57;18.80;97.20
21298;DHT22;10808;48.010;11.326;2023-06-26T05:17:23;18.90;97.00
21298;DHT22;10808;48.010;11.326;2023-06-26T05:19:49;19.00;97.10
21298;DHT22;10808;48.010;11.326;2023-06-26T05:22:16;19.10;96.20
21298;DHT22;10808;48.010;11.326;2023-06-26T05:24:46;19.30;96.90
21298;DHT22;10808;48.010;11.326;2023-06-26T05:27:13;19.40;95.60
21298;DHT22;10808;48.010;11.326;2023-06-26T05:29:47;19.60;94.90
21298;DHT22;10808;48.010;11.326;2023-06-26T05:32:15;19.80;95.60
21298;DHT22;10808;48.010;11.326;2023-06-26T05:34:48;20.00;95.10
21298;DHT22;10808;48.010;11.326;2023-06-26T05:37:21;20.20;95.60
21298;DHT22;10808;48.010;11.326;2023-06-26T05:39:47;20.40;94.60
21298;DHT22;10808;48.010;11.326;2023-06-26T05:42:14;20.60;93.80
21298;DHT22;10808;48.010;11.326;2023-06-26T05:44:40;20.90;93.90
21298;DHT22;10808;48.010;11.326;2023-06-26T05:47:06;21.10;93.60
21298;DHT22;10808;48.010;11.326;2023-06-26T05:49:33;21.30;93.40
21298;DHT22;10808;48.010;11.326;2023-06-26T05:51:59;21.50;93.50
21298;DHT22;10808;48.010;11.326;2023-06-26T05:54:26;21.70;93.30
21298;DHT22;10808;48.010;11.326;2023-06-26T05:56:57;22.00;93.30
21298;DHT22;10808;48.010;11.326;2023-06-26T05:59:26;22.10;91.70
21298;DHT22;10808;48.010;11.326;2023-06-26T06:01:53;22.30;92.30
21298;DHT22;10808;48.010;11.326;2023-06-26T06:04:19;22.60;91.70
21298;DHT22;10808;48.010;11.326;2023-06-26T06:06:45;22.80;91.50
21298;DHT22;10808;48.010;11.326;2023-06-26T06:09:11;23.10;91.80
21298;DHT22;10808;48.010;11.326;2023-06-26T06:11:37;23.40;92.00
21298;DHT22;10808;48.010;11.326;2023-06-26T06:14:03;23.70;91.20
21298;DHT22;10808;48.010;11.326;2023-06-26T06:16:29;24.00;90.70
21298;DHT22;10808;48.010;11.326;2023-06-26T06:18:55;24.30;90.00
21298;DHT22;10808;48.010;11.326;2023-06-26T06:21:21;24.50;89.30
21298;DHT22;10808;48.010;11.326;2023-06-26T06:23:47;24.80;88.40
21298;DHT22;10808;48.010;11.326;2023-06-26T06:26:13;25.10;87.40
21298;DHT22;10808;48.010;11.326;2023-06-26T06:28:39;25.20;85.20
21298;DHT22;10808;48.010;11.326;2023-06-26T06:31:05;25.50;83.60
21298;DHT22;10808;48.010;11.326;2023-06-26T06:33:32;25.60;83.00
21298;DHT22;10808;48.010;11.326;2023-06-26T06:35:58;25.80;81.50
21298;DHT22;10808;48.010;11.326;2023-06-26T06:38:24;26.10;81.60
21298;DHT22;10808;48.010;11.326;2023-06-26T06:40:50;26.20;81.00
21298;DHT22;10808;48.010;11.326;2023-06-26T06:43:16;26.30;80.80
21298;DHT22;10808;48.010;11.326;2023-06-26T06:45:42;26.60;80.20
21298;DHT22;10808;48.010;11.326;2023-06-26T06:48:08;26.80;80.10
21298;DHT22;10808;48.010;11.326;2023-06-26T06:50:34;27.00;78.20
21298;DHT22;10808;48.010;11.326;2023-06-26T06:53:01;27.20;78.10
21298;DHT22;10808;48.010;11.326;2023-06-26T06:55:27;27.40;77.30
21298;DHT22;10808;48.010;11.326;2023-06-26T06:57:53;27.50;76.00
21298;DHT22;10808;48.010;11.326;2023-06-26T07:00:19;27.80;76.70
21298;DHT22;10808;48.010;11.326;2023-06-26T07:02:46;28.20;74.70
21298;DHT22;10808;48.010;11.326;2023-06-26T07:05:12;28.30;74.20
21298;DHT22;10808;48.010;11.326;2023-06-26T07:07:39;28.40;74.20
21298;DHT22;10808;48.010;11.326;2023-06-26T07:10:11;28.40;72.80
21298;DHT22;10808;48.010;11.326;2023-06-26T07:12:37;28.40;71.20
21298;DHT22;10808;48.010;11.326;2023-06-26T07:15:05;28.20;70.70
21298;DHT22;10808;48.010;11.326;2023-06-26T07:17:32;28.20;71.70
21298;DHT22;10808;48.010;11.326;2023-06-26T07:19:59;28.20;72.30
21298;DHT22;10808;48.010;11.326;2023-06-26T07:22:26;28.40;71.50
21298;DHT22;10808;48.010;11.326;2023-06-26T07:24:52;28.60;72.70
21298;DHT22;10808;48.010;11.326;2023-06-26T07:27:19;28.60;70.30
21298;DHT22;10808;48.010;11.326;2023-06-26T07:29:45;28.50;70.70
21298;DHT22;10808;48.010;11.326;2023-06-26T07:32:11;28.40;70.20
21298;DHT22;10808;48.010;11.326;2023-06-26T07:34:37;28.30;70.80
21298;DHT22;10808;48.010;11.326;2023-06-26T07:37:04;28.20;70.90
21298;DHT22;10808;48.010;11.326;2023-06-26T07:39:30;28.30;71.80
21298;DHT22;10808;48.010;11.326;2023-06-26T07:41:56;28.30;70.50
21298;DHT22;10808;48.010;11.326;2023-06-26T07:44:25;28.30;71.00
21298;DHT22;10808;48.010;11.326;2023-06-26T07:46:51;28.40;71.10
21298;DHT22;10808;48.010;11.326;2023-06-26T07:49:17;28.50;71.80
21298;DHT22;10808;48.010;11.326;2023-06-26T07:51:43;28.50;70.90
21298;DHT22;10808;48.010;11.326;2023-06-26T07:54:09;28.50;71.00
21298;DHT22;10808;48.010;11.326;2023-06-26T07:57:01;28.70;72.40
21298;DHT22;10808;48.010;11.326;2023-06-26T07:59:29;28.90;71.10
21298;DHT22;10808;48.010;11.326;2023-06-26T08:01:56;28.90;69.60
21298;DHT22;10808;48.010;11.326;2023-06-26T08:04:24;29.00;70.30
21298;DHT22;10808;48.010;11.326;2023-06-26T08:06:53;29.10;69.90
21298;DHT22;10808;48.010;11.326;2023-06-26T08:09:20;29.10;69.80
21298;DHT22;10808;48.010;11.326;2023-06-26T08:11:47;29.30;69.10
21298;DHT22;10808;48.010;11.326;2023-06-26T08:14:13;29.40;68.40
21298;DHT22;10808;48.010;11.326;2023-06-26T08:16:40;29.40;68.20
21298;DHT22;10808;48.010;11.326;2023-06-26T08:19:06;29.60;67.60
21298;DHT22;10808;48.010;11.326;2023-06-26T08:21:33;29.80;67.80
21298;DHT22;10808;48.010;11.326;2023-06-26T08:23:59;29.90;67.20
21298;DHT22;10808;48.010;11.326;2023-06-26T08:26:25;29.80;66.50
21298;DHT22;10808;48.010;11.326;2023-06-26T08:28:51;29.80;66.00
21298;DHT22;10808;48.010;11.326;2023-06-26T08:31:17;30.00;65.70
21298;DHT22;10808;48.010;11.326;2023-06-26T08:33:43;30.00;64.40
21298;DHT22;10808;48.010;11.326;2023-06-26T08:36:10;30.10;65.10
21298;DHT22;10808;48.010;11.326;2023-06-26T08:38:36;30.40;65.10
21298;DHT22;10808;48.010;11.326;2023-06-26T08:41:02;30.60;64.30
21298;DHT22;10808;48.010;11.326;2023-06-26T08:43:28;30.80;64.00
21298;DHT22;10808;48.010;11.326;2023-06-26T08:45:54;30.80;62.70
21298;DHT22;10808;48.010;11.326;2023-06-26T08:48:32;31.00;63.50
21298;DHT22;10808;48.010;11.326;2023-06-26T08:51:03;31.20;61.80
21298;DHT22;10808;48.010;11.326;2023-06-26T08:53:50;31.40;61.50
21298;DHT22;10808;48.010;11.326;2023-06-26T08:56:19;31.50;61.00
21298;DHT22;10808;48.010;11.326;2023-06-26T08:58:47;31.50;60.70
21298;DHT22;10808;48.010;11.326;2023-06-26T09:01:14;31.50;61.10
21298;DHT22;10808;48.010;11.326;2023-06-26T09:03:40;31.60;60.30
21298;DHT22;10808;48.010;11.326;2023-06-26T09:06:07;31.70;59.80
21298;DHT22;10808;48.010;11.326;2023-06-26T09:08:34;31.80;59.40
21298;DHT22;10808;48.010;11.326;2023-06-26T09:11:00;31.80;59.50
21298;DHT22;10808;48.010;11.326;2023-06-26T09:13:29;32.00;59.10
21298;DHT22;10808;48.010;11.326;2023-06-26T09:15:56;32.20;59.20
21298;DHT22;10808;48.010;11.326;2023-06-26T09:18:23;32.30;58.20
21298;DHT22;10808;48.010;11.326;2023-06-26T09:20:49;32.30;58.30
21298;DHT22;10808;48.010;11.326;2023-06-26T09:23:16;32.50;58.10
21298;DHT22;10808;48.010;11.326;2023-06-26T09:25:42;32.50;57.40
21298;DHT22;10808;48.010;11.326;2023-06-26T09:28:08;32.50;57.20
21298;DHT22;10808;48.010;11.326;2023-06-26T09:30:35;32.50;57.40
21298;DHT22;10808;48.010;11.326;2023-06-26T09:33:15;32.70;57.10
21298;DHT22;10808;48.010;11.326;2023-06-26T09:35:42;32.70;56.60
21298;DHT22;10808;48.010;11.326;2023-06-26T09:38:08;32.80;55.60
21298;DHT22;10808;48.010;11.326;2023-06-26T09:40:34;32.70;54.70
21298;DHT22;10808;48.010;11.326;2023-06-26T09:43:05;32.70;54.90
21298;DHT22;10808;48.010;11.326;2023-06-26T09:45:39;32.50;55.10
21298;DHT22;10808;48.010;11.326;2023-06-26T09:48:07;32.40;55.50
21298;DHT22;10808;48.010;11.326;2023-06-26T09:50:41;32.30;56.10
21298;DHT22;10808;48.010;11.326;2023-06-26T09:53:11;32.40;56.10
21298;DHT22;10808;48.010;11.326;2023-06-26T09:55:41;32.40;55.50
21298;DHT22;10808;48.010;11.326;2023-06-26T09:58:12;32.60;56.60
21298;DHT22;10808;48.010;11.326;2023-06-26T10:00:43;32.80;55.20
21298;DHT22;10808;48.010;11.326;2023-06-26T10:03:12;33.00;54.10
21298;DHT22;10808;48.010;11.326;2023-06-26T10:05:40;33.40;54.60
21298;DHT22;10808;48.010;11.326;2023-06-26T10:08:06;33.50;53.80
21298;DHT22;10808;48.010;11.326;2023-06-26T10:10:37;33.60;54.20
21298;DHT22;10808;48.010;11.326;2023-06-26T10:13:16;33.50;53.50
21298;DHT22;10808;48.010;11.326;2023-06-26T10:15:46;33.20;53.60
21298;DHT22;10808;48.010;11.326;2023-06-26T10:18:16;33.20;53.40
21298;DHT22;10808;48.010;11.326;2023-06-26T10:20:45;33.00;53.80
21298;DHT22;10808;48.010;11.326;2023-06-26T10:23:13;33.20;53.70
21298;DHT22;10808;48.010;11.326;2023-06-26T10:25:42;33.40;53.50
21298;DHT22;10808;48.010;11.326;2023-06-26T10:28:10;33.60;53.20
21298;DHT22;10808;48.010;11.326;2023-06-26T10:30:39;33.70;52.90
21298;DHT22;10808;48.010;11.326;2023-06-26T10:33:05;33.70;52.90
21298;DHT22;10808;48.010;11.326;2023-06-26T10:35:33;33.70;53.10
21298;DHT22;10808;48.010;11.326;2023-06-26T10:38:02;33.70;52.80
21298;DHT22;10808;48.010;11.326;2023-06-26T10:40:56;33.50;53.50
21298;DHT22;10808;48.010;11.326;2023-06-26T10:43:38;33.50;53.10
21298;DHT22;10808;48.010;11.326;2023-06-26T10:49:27;32.90;53.60
21298;DHT22;10808;48.010;11.326;2023-06-26T10:51:54;32.80;54.00
21298;DHT22;10808;48.010;11.326;2023-06-26T10:54:23;33.00;53.80
21298;DHT22;10808;48.010;11.326;2023-06-26T10:56:50;33.10;54.30
21298;DHT22;10808;48.010;11.326;2023-06-26T10:59:17;33.40;53.10
21298;DHT22;10808;48.010;11.326;2023-06-26T11:01:55;33.50;53.60
21298;DHT22;10808;48.010;11.326;2023-06-26T11:04:38;33.60;52.80
21298;DHT22;10808;48.010;11.326;2023-06-26T11:07:19;33.60;52.90
21298;DHT22;10808;48.010;11.326;2023-06-26T11:10:02;33.70;53.20
21298;DHT22;10808;48.010;11.326;2023-06-26T11:12:44;33.50;52.60
21298;DHT22;10808;48.010;11.326;2023-06-26T11:15:15;33.20;53.30
21298;DHT22;10808;48.010;11.326;2023-06-26T11:17:42;33.20;52.90
21298;DHT22;10808;48.010;11.326;2023-06-26T11:20:13;33.50;53.50
21298;DHT22;10808;48.010;11.326;2023-06-26T11:22:41;33.60;52.50
21298;DHT22;10808;48.010;11.326;2023-06-26T11:25:08;33.90;53.50
21298;DHT22;10808;48.010;11.326;2023-06-26T11:30:08;33.90;52.50
21298;DHT22;10808;48.010;11.326;2023-06-26T11:32:36;33.90;53.00
21298;DHT22;10808;48.010;11.326;2023-06-26T11:35:03;33.80;53.40
21298;DHT22;10808;48.010;11.326;2023-06-26T11:37:34;33.90;52.90
21298;DHT22;10808;48.010;11.326;2023-06-26T11:40:15;33.90;53.20
21298;DHT22;10808;48.010;11.326;2023-06-26T11:42:41;34.30;53.00
21298;DHT22;10808;48.010;11.326;2023-06-26T11:45:07;34.20;53.20
21298;DHT22;10808;48.010;11.326;2023-06-26T11:47:33;34.10;52.60
21298;DHT22;10808;48.010;11.326;2023-06-26T11:50:04;34.10;52.90
21298;DHT22;10808;48.010;11.326;2023-06-26T11:52:32;34.30;53.20
21298;DHT22;10808;48.010;11.326;2023-06-26T11:54:58;34.60;53.40
21298;DHT22;10808;48.010;11.326;2023-06-26T11:57:25;34.80;52.90
21298;DHT22;10808;48.010;11.326;2023-06-26T11:59:51;35.00;52.30
21298;DHT22;10808;48.010;11.326;2023-06-26T12:02:17;35.10;51.30
21298;DHT22;10808;48.010;11.326;2023-06-26T12:04:44;35.00;51.20
21298;DHT22;10808;48.010;11.326;2023-06-26T12:07:11;35.10;51.30
21298;DHT22;10808;48.010;11.326;2023-06-26T12:09:43;35.10;51.30
21298;DHT22;10808;48.010;11.326;2023-06-26T12:12:11;35.20;51.20
21298;DHT22;10808;48.010;11.326;2023-06-26T12:14:37;35.20;51.00
21298;DHT22;10808;48.010;11.326;2023-06-26T12:17:08;35.10;51.60
21298;DHT22;10808;48.010;11.326;2023-06-26T12:19:37;35.00;51.20
21298;DHT22;10808;48.010;11.326;2023-06-26T12:22:07;35.00;51.70
21298;DHT22;10808;48.010;11.326;2023-06-26T12:24:36;35.00;51.20
21298;DHT22;10808;48.010;11.326;2023-06-26T12:27:11;35.00;51.40
21298;DHT22;10808;48.010;11.326;2023-06-26T12:29:39;35.00;51.40
21298;DHT22;10808;48.010;11.326;2023-06-26T12:32:09;34.70;52.30
21298;DHT22;10808;48.010;11.326;2023-06-26T12:34:39;34.70;52.20
21298;DHT22;10808;48.010;11.326;2023-06-26T12:37:10;34.40;51.80
21298;DHT22;10808;48.010;11.326;2023-06-26T12:42:55;34.40;51.60
21298;DHT22;10808;48.010;11.326;2023-06-26T12:45:21;34.60;52.20
21298;DHT22;10808;48.010;11.326;2023-06-26T12:47:47;34.90;52.20
21298;DHT22;10808;48.010;11.326;2023-06-26T12:50:14;34.60;52.00
21298;DHT22;10808;48.010;11.326;2023-06-26T12:52:40;34.50;51.70
21298;DHT22;10808;48.010;11.326;2023-06-26T12:55:07;34.40;52.00
21298;DHT22;10808;48.010;11.326;2023-06-26T12:57:33;34.50;52.50
21298;DHT22;10808;48.010;11.326;2023-06-26T13:00:00;34.70;53.10
21298;DHT22;10808;48.010;11.326;2023-06-26T13:02:26;34.70;52.30
21298;DHT22;10808;48.010;11.326;2023-06-26T13:04:52;34.30;51.80
21298;DHT22;10808;48.010;11.326;2023-06-26T13:07:18;33.90;52.50
21298;DHT22;10808;48.010;11.326;2023-06-26T13:09:44;33.60;52.80
21298;DHT22;10808;48.010;11.326;2023-06-26T13:12:11;33.50;53.40
21298;DHT22;10808;48.010;11.326;2023-06-26T13:14:37;33.60;54.40
21298;DHT22;10808;48.010;11.326;2023-06-26T13:17:04;33.90;53.90
21298;DHT22;10808;48.010;11.326;2023-06-26T13:19:30;34.00;53.80
21298;DHT22;10808;48.010;11.326;2023-06-26T13:21:57;34.10;53.80
21298;DHT22;10808;48.010;11.326;2023-06-26T13:24:23;34.40;54.10
21298;DHT22;10808;48.010;11.326;2023-06-26T13:26:49;34.30;53.90
21298;DHT22;10808;48.010;11.326;2023-06-26T13:29:15;34.10;53.70
21298;DHT22;10808;48.010;11.326;2023-06-26T13:31:41;34.00;54.30
21298;DHT22;10808;48.010;11.326;2023-06-26T13:34:07;33.90;53.80
21298;DHT22;10808;48.010;11.326;2023-06-26T13:36:33;33.90;53.80
21298;DHT22;10808;48.010;11.326;2023-06-26T13:39:00;33.90;53.80
21298;DHT22;10808;48.010;11.326;2023-06-26T13:41:26;34.00;53.50
21298;DHT22;10808;48.010;11.326;2023-06-26T13:43:54;33.90;53.60
21298;DHT22;10808;48.010;11.326;2023-06-26T13:46:20;33.80;54.10
21298;DHT22;10808;48.010;11.326;2023-06-26T13:48:46;34.00;53.50
21298;DHT22;10808;48.010;11.326;2023-06-26T13:51:12;34.10;52.90
21298;DHT22;10808;48.010;11.326;2023-06-26T13:53:39;34.40;52.80
21298;DHT22;10808;48.010;11.326;2023-06-26T13:56:05;34.50;52.20
21298;DHT22;10808;48.010;11.326;2023-06-26T13:58:31;34.60;52.00
21298;DHT22;10808;48.010;11.326;2023-06-26T14:00:59;34.50;52.00
21298;DHT22;10808;48.010;11.326;2023-06-26T14:03:26;34.40;52.60
21298;DHT22;10808;48.010;11.326;2023-06-26T14:05:53;34.20;52.70
21298;DHT22;10808;48.010;11.326;2023-06-26T14:08:20;34.00;53.40
21298;DHT22;10808;48.010;11.326;2023-06-26T14:10:46;34.10;53.10
21298;DHT22;10808;48.010;11.326;2023-06-26T14:13:12;34.40;53.60
21298;DHT22;10808;48.010;11.326;2023-06-26T14:15:41;34.50;52.60
21298;DHT22;10808;48.010;11.326;2023-06-26T14:18:07;34.40;52.90
21298;DHT22;10808;48.010;11.326;2023-06-26T14:20:33;34.40;52.80
21298;DHT22;10808;48.010;11.326;2023-06-26T14:23:01;34.10;52.80
21298;DHT22;10808;48.010;11.326;2023-06-26T14:25:28;33.90;52.90
21298;DHT22;10808;48.010;11.326;2023-06-26T14:27:55;33.80;53.30
21298;DHT22;10808;48.010;11.326;2023-06-26T14:30:22;33.80;53.70
21298;DHT22;10808;48.010;11.326;2023-06-26T14:32:48;33.70;53.90
21298;DHT22;10808;48.010;11.326;2023-06-26T14:35:14;33.70;54.00
21298;DHT22;10808;48.010;11.326;2023-06-26T14:37:40;33.40;53.50
21298;DHT22;10808;48.010;11.326;2023-06-26T14:40:08;33.30;54.30
21298;DHT22;10808;48.010;11.326;2023-06-26T14:42:34;33.30;54.80
21298;DHT22;10808;48.010;11.326;2023-06-26T14:45:00;33.60;55.00
21298;DHT22;10808;48.010;11.326;2023-06-26T14:47:26;33.50;54.40
21298;DHT22;10808;48.010;11.326;2023-06-26T14:49:52;33.70;54.30
21298;DHT22;10808;48.010;11.326;2023-06-26T14:52:18;33.80;54.80
21298;DHT22;10808;48.010;11.326;2023-06-26T14:54:44;34.10;53.70
21298;DHT22;10808;48.010;11.326;2023-06-26T14:57:10;34.10;53.40
21298;DHT22;10808;48.010;11.326;2023-06-26T14:59:36;34.30;52.80
21298;DHT22;10808;48.010;11.326;2023-06-26T15:02:02;34.40;52.20
21298;DHT22;10808;48.010;11.326;2023-06-26T15:04:28;34.40;52.80
21298;DHT22;10808;48.010;11.326;2023-06-26T15:07:17;34.50;52.30
21298;DHT22;10808;48.010;11.326;2023-06-26T15:09:43;34.40;52.20
21298;DHT22;10808;48.010;11.326;2023-06-26T15:12:09;34.40;52.60
21298;DHT22;10808;48.010;11.326;2023-06-26T15:14:35;34.40;53.10
21298;DHT22;10808;48.010;11.326;2023-06-26T15:17:01;34.20;53.10
21298;DHT22;10808;48.010;11.326;2023-06-26T15:19:27;33.80;53.10
21298;DHT22;10808;48.010;11.326;2023-06-26T15:21:53;33.40;53.50
21298;DHT22;10808;48.010;11.326;2023-06-26T15:24:19;33.10;54.20
21298;DHT22;10808;48.010;11.326;2023-06-26T15:26:45;32.90;55.10
21298;DHT22;10808;48.010;11.326;2023-06-26T15:29:11;32.70;54.70
21298;DHT22;10808;48.010;11.326;2023-06-26T15:31:40;32.70;55.90
21298;DHT22;10808;48.010;11.326;2023-06-26T15:34:06;32.60;55.70
21298;DHT22;10808;48.010;11.326;2023-06-26T15:36:32;32.40;55.60
21298;DHT22;10808;48.010;11.326;2023-06-26T15:38:58;32.30;56.40
21298;DHT22;10808;48.010;11.326;2023-06-26T15:41:24;32.00;56.90